🇳🇱 VeloStatistics

👤 Mateusz Komar

NationaliteitPOL
Geboortedatum1985-07-18
Overlijdensdatum -
Lengte / Gewicht?? cm / ?? kg
Profzeges1
Profzeges 20260
Wedstrijddagen182

🚴 Ploegenhistorie

Geen ploegen gevonden.

🏆 Resultaten (113)

Datum Pos Wedstrijd UCI Ploeg
2014-06-04 6 2014 | Tour of Slovakia, SVK | Rit 2 (4.6) 2.2 -
2014-05-31 19 2014 | Tour of Estonia, EST (31.5) 2.1 -
2014-05-31 9 2014 | Tour of Estonia, EST | Rit 2 (31.5) 2.1 -
2014-05-01 4 2014 | Memorial Andrzeja Trochanowskiego, POL (1.5) 1.2 -
2013-08-25 7 2013 | Baltic Chain Tour (25.8) 2.2 -
2013-08-24 5 2013 | Baltic Chain Tour | Rit 5 (24.8) 2.2 -
2013-08-20 5 2013 | Baltic Chain Tour | Rit 2 (20.8) 2.2 -
2013-08-17 2 2013 | Puchar Ministra Obrony Narodowej, POL (17.8) 1.2 -
2013-06-29 45 2013 | Course de Solidarnosc et des Champions Olympiques, POL (29.6) 2.1 -
2013-06-29 12 2013 | Course de Solidarnosc et des Champions Olympiques, POL | Rit 4 (29.6) 2.1 -
2013-06-23 6 2013 | N.K. Polen, POL (23.6) NC -
2013-06-09 38 2013 | Jurmala G.P., LAT (9.6) 1.1 -
2013-06-08 10 2013 | Riga G.P., LAT (8.6) 1.1 -
2013-06-01 73 2013 | Tour of Estonia, EST (1.6) 2.1 -
2013-04-07 17 2013 | Tour du Maroc, MAR (7.4) 2.2 -
2013-04-07 6 2013 | Tour du Maroc, MAR | Rit 10 (7.4) 2.2 -
2013-04-06 3 2013 | Tour du Maroc, MAR | Rit 9 (6.4) 2.2 -
2013-04-04 1 2013 | Tour du Maroc, MAR | Rit 7 (4.4) 2.2 -
2012-05-01 17 2012 | Memorial Andrzeja Trochanowskiego, POL (1.5) 1.2 -
2011-07-30 1 2011 | Dookola Mazowsza, POL | Rit 4 (30.7) 2.2 -
2011-07-02 55 2011 | Course de Solidarnosc et des Champions Olympiques, POL (2.7) 2.1 -
2011-05-08 65 2011 | Szlakiem Grodow Piastowskich, POL (8.5) 2.1 -
2010-07-27 5 2010 | Dookola Mazowsza, POL | Rit 0 (27.7) 2.2 -
2010-07-25 12 2010 | Pomerania Tour, POL (25.7) 1.2 -
2010-07-04 97 2010 | Course de Solidarnosc et des Champions Olympiques, POL (4.7) 2.1 -
2010-06-27 27 2010 | N.K. Polen, POL (27.6) NC -
2010-03-28 10 2010 | Vuelta al Uruguay, URU | Rit 3 (28.3) 2.2 -
2009-08-15 6 2009 | Memorial Henryka Lasaka, POL (15.8) 1.2 -
2009-07-28 2 2009 | Dookola Mazowsza, POL | Rit 0 (28.7) 2.2 -
2009-07-05 15 2009 | Course de Solidarnosc et des Champions Olympiques, POL (5.7) 2.1 -
2009-07-04 2 2009 | Course de Solidarnosc et des Champions Olympiques, POL | Rit 5 (4.7) 2.1 -
2009-06-05 1 2009 | Baltyk Karkonosze Tour, POL | Rit 4 (5.6) 2.2 -
2009-05-01 19 2009 | Memorial Andrzeja Trochanowskiego, POL (1.5) 1.2 -
2008-08-17 14 2008 | Puchar Uzdrowisk Karpackich, POL (17.8) 1.2 -
2008-08-07 9 2008 | Tour of Malopolska, POL | Rit 1 (7.8) 2.2 -
2008-07-13 5 2008 | Pomorski Klasyk, POL (13.7) 1.2 -
2008-07-06 54 2008 | Course de Solidarnosc et des Champions Olympiques, POL (6.7) 2.1 -
2008-07-02 14 2008 | Course de Solidarnosc et des Champions Olympiques, POL | Rit 1 (2.7) 2.1 -
2008-07-02 11 2008 | Course de Solidarnosc et des Champions Olympiques, POL | Rit 2 (2.7) 2.1 -
2008-06-29 15 2008 | N.K. Polen, POL (29.6) NC -
2008-06-26 23 2008 | N.K. Polen I.T.T., POL (26.6) NCT -
2008-06-04 4 2008 | Baltyk Karkonosze Tour, POL | Rit 2 (4.6) 2.2 -
2008-05-25 7 2008 | FBD Insurance RAS, IRL | Rit 8 (25.5) 2.2 -
2008-05-22 3 2008 | FBD Insurance RAS, IRL | Rit 5 (22.5) 2.2 -
2008-05-20 3 2008 | FBD Insurance RAS, IRL | Rit 3 (20.5) 2.2 -
2008-05-18 4 2008 | FBD Insurance RAS, IRL | Rit 1 (18.5) 2.2 -
2007-09-11 5 2007 | Cro Race, CRO | Rit 0 (11.9) 2.2 -
2007-08-29 7 2007 | Tour of Slovakia, SVK | Rit 1 (29.8) 2.2 -
2007-08-26 2 2007 | Szlakiem Walk Majora Hubala, POL (26.8) 2.2 -
2007-08-25 5 2007 | Szlakiem Walk Majora Hubala, POL | Rit 2 (25.8) 2.2 -